createdAt,value
2018-10-04T00:01:55.974Z,102531.08
2018-10-04T00:04:25.971Z,102526.86
2018-10-04T00:06:55.841Z,102531.19
2018-10-04T00:09:25.751Z,102525.39
2018-10-04T00:11:55.585Z,102537.23
2018-10-04T00:14:25.649Z,102535.09
2018-10-04T00:16:55.512Z,102539.16
2018-10-04T00:19:25.595Z,102542.66
2018-10-04T00:21:55.634Z,102542.17
2018-10-04T00:24:25.581Z,102551.83
2018-10-04T00:26:55.501Z,102545.52
2018-10-04T00:29:25.280Z,102544.23
2018-10-04T00:31:55.333Z,102539.72
2018-10-04T00:34:25.157Z,102539.17
2018-10-04T00:36:55.178Z,102541.05
2018-10-04T00:39:25.400Z,102543.72
2018-10-04T00:41:55.481Z,102538.33
2018-10-04T00:44:25.568Z,102537.00
2018-10-04T00:46:55.650Z,102541.14
2018-10-04T00:49:25.680Z,102534.98
2018-10-04T00:51:55.660Z,102531.31
2018-10-04T00:54:25.484Z,102526.55
2018-10-04T00:56:55.414Z,102530.38
2018-10-04T00:59:25.468Z,102535.47
2018-10-04T01:01:55.417Z,102537.64
2018-10-04T01:04:25.520Z,102532.33
2018-10-04T01:06:55.446Z,102533.12
2018-10-04T01:09:25.408Z,102528.82
2018-10-04T01:11:55.238Z,102527.86
2018-10-04T01:14:25.281Z,102517.19
2018-10-04T01:16:55.135Z,102519.36
2018-10-04T01:19:24.954Z,102515.88
2018-10-04T01:21:55.218Z,102509.50
2018-10-04T01:24:25.333Z,102514.86
2018-10-04T01:26:55.735Z,102511.42
2018-10-04T01:29:25.683Z,102517.33
2018-10-04T01:31:55.472Z,102510.66
2018-10-04T01:34:25.464Z,102509.34
2018-10-04T01:36:55.325Z,102505.02
2018-10-04T01:39:25.495Z,102504.50
2018-10-04T01:41:55.457Z,102508.82
2018-10-04T01:44:25.568Z,102507.73
2018-10-04T01:46:55.600Z,102503.98
2018-10-04T01:49:25.564Z,102504.25
2018-10-04T01:51:55.501Z,102502.35
2018-10-04T01:54:25.654Z,102503.75
2018-10-04T01:56:55.572Z,102503.05
2018-10-04T01:59:25.795Z,102496.06
2018-10-04T02:01:55.857Z,102495.81
2018-10-04T02:04:26.029Z,102499.81
2018-10-04T02:06:55.908Z,102499.28
2018-10-04T02:09:25.830Z,102497.15
2018-10-04T02:11:56.040Z,102501.15
2018-10-04T02:14:26.206Z,102501.97
2018-10-04T02:16:56.036Z,102496.11
2018-10-04T02:19:26.048Z,102496.11
2018-10-04T02:21:55.897Z,102497.77
2018-10-04T02:24:26.008Z,102492.19
2018-10-04T02:26:56.381Z,102493.77
2018-10-04T02:29:26.505Z,102483.34
2018-10-04T02:31:56.701Z,102482.83
2018-10-04T02:34:26.601Z,102483.60
2018-10-04T02:36:56.539Z,102479.64
2018-10-04T02:39:26.383Z,102481.20
2018-10-04T02:41:56.288Z,102483.39
2018-10-04T02:44:26.352Z,102487.36
2018-10-04T02:46:56.236Z,102481.77
2018-10-04T02:49:26.217Z,102479.09
2018-10-04T02:51:56.130Z,102481.81
2018-10-04T02:54:26.412Z,102480.73
2018-10-04T02:56:58.031Z,102472.72
2018-10-04T02:59:27.987Z,102473.76
2018-10-04T03:01:57.940Z,102471.09
2018-10-04T03:04:27.927Z,102470.00
2018-10-04T03:06:57.804Z,102465.19
2018-10-04T03:09:27.659Z,102471.13
2018-10-04T03:11:57.697Z,102457.48
2018-10-04T03:14:27.700Z,102466.38
2018-10-04T03:16:57.721Z,102466.63
2018-10-04T03:19:27.553Z,102457.23
2018-10-04T03:21:57.378Z,102464.21
2018-10-04T03:24:27.351Z,102452.77
2018-10-04T03:26:57.275Z,102452.52
2018-10-04T03:29:27.438Z,102460.27
2018-10-04T03:31:57.486Z,102458.41
2018-10-04T03:34:27.768Z,102455.96
2018-10-04T03:36:57.619Z,102454.73
2018-10-04T03:39:27.500Z,102456.57
2018-10-04T03:41:57.399Z,102454.92
2018-10-04T03:44:27.565Z,102456.78
2018-10-04T03:46:57.662Z,102454.94
2018-10-04T03:49:27.680Z,102447.48
2018-10-04T03:51:57.659Z,102445.89
2018-10-04T03:54:27.932Z,102454.17
2018-10-04T03:56:57.889Z,102452.82
2018-10-04T03:59:27.857Z,102449.59
2018-10-04T04:01:57.742Z,102450.71
2018-10-04T04:04:27.774Z,102446.20
2018-10-04T04:06:57.697Z,102448.63
2018-10-04T04:09:27.612Z,102445.96
2018-10-04T04:11:57.673Z,102439.34
2018-10-04T04:14:27.968Z,102440.88
2018-10-04T04:16:57.864Z,102439.33
2018-10-04T04:19:27.669Z,102441.42
2018-10-04T04:21:57.531Z,102443.28
2018-10-04T04:24:27.485Z,102432.50
2018-10-04T04:26:57.673Z,102433.36
2018-10-04T04:29:27.960Z,102434.13
2018-10-04T04:31:57.976Z,102433.82
2018-10-04T04:34:27.777Z,102435.42
2018-10-04T04:36:57.760Z,102433.27
2018-10-04T04:39:27.721Z,102436.23
2018-10-04T04:41:57.777Z,102440.81
2018-10-04T04:44:27.740Z,102438.70
2018-10-04T04:46:57.661Z,102443.17
2018-10-04T04:49:27.936Z,102439.72
2018-10-04T04:51:58.005Z,102441.02
2018-10-04T04:55:41.203Z,102444.77
2018-10-04T04:58:12.287Z,102447.67
2018-10-04T05:00:43.497Z,102450.09
2018-10-04T05:03:13.361Z,102449.01
2018-10-04T05:05:43.328Z,102443.73
2018-10-04T05:08:14.099Z,102447.42
2018-10-04T05:10:43.941Z,102449.29
2018-10-04T05:13:13.795Z,102449.84
2018-10-04T05:15:43.544Z,102452.77
2018-10-04T05:18:13.617Z,102446.63
2018-10-04T05:20:43.628Z,102452.21
2018-10-04T05:23:13.399Z,102455.23
2018-10-04T05:25:43.277Z,102454.39
2018-10-04T05:28:13.289Z,102455.14
2018-10-04T05:30:43.209Z,102450.78
2018-10-04T05:33:13.017Z,102448.10
2018-10-04T05:35:42.966Z,102448.62
2018-10-04T05:38:12.925Z,102450.41
2018-10-04T05:40:42.766Z,102448.58
2018-10-04T05:43:12.569Z,102446.26
2018-10-04T05:45:42.535Z,102442.76
2018-10-04T05:48:12.317Z,102441.17
2018-10-04T05:50:42.164Z,102436.61
2018-10-04T05:53:12.109Z,102443.07
2018-10-04T05:55:42.067Z,102439.58
2018-10-04T05:58:11.931Z,102435.28
2018-10-04T06:00:43.847Z,102434.20
2018-10-04T06:03:13.757Z,102435.27
2018-10-04T06:05:43.624Z,102436.41
2018-10-04T06:08:13.512Z,102440.92
2018-10-04T06:10:43.418Z,102434.80
2018-10-04T06:13:13.362Z,102433.47
2018-10-04T06:15:43.469Z,102445.44
2018-10-04T06:18:13.553Z,102448.69
2018-10-04T06:20:43.432Z,102436.92
2018-10-04T06:23:13.457Z,102443.34
2018-10-04T06:25:43.596Z,102444.68
2018-10-04T06:28:13.716Z,102438.56
2018-10-04T06:30:43.825Z,102439.65
2018-10-04T06:33:13.761Z,102444.52
2018-10-04T06:35:43.705Z,102454.64
2018-10-04T06:38:13.804Z,102456.55
2018-10-04T06:40:43.820Z,102454.95
2018-10-04T06:43:13.794Z,102458.44
2018-10-04T06:45:43.808Z,102466.23
2018-10-04T06:48:13.730Z,102465.48
2018-10-04T06:50:44.297Z,102460.08
2018-10-04T06:53:14.038Z,102467.33
2018-10-04T06:55:44.022Z,102474.61
2018-10-04T06:58:13.969Z,102474.63
2018-10-04T07:00:43.800Z,102476.52
2018-10-04T07:03:13.919Z,102477.86
2018-10-04T07:05:43.757Z,102479.77
2018-10-04T07:08:14.046Z,102484.06
2018-10-04T07:10:44.117Z,102489.42
2018-10-04T07:13:14.001Z,102492.66
2018-10-04T07:15:43.810Z,102496.67
2018-10-04T07:18:14.130Z,102497.53
2018-10-04T07:20:44.243Z,102495.16
2018-10-04T07:23:14.177Z,102505.89
2018-10-04T07:25:43.961Z,102503.23
2018-10-04T07:28:13.906Z,102501.16
2018-10-04T07:30:43.930Z,102505.70
2018-10-04T07:33:13.900Z,102508.16
2018-10-04T07:35:43.914Z,102510.05
2018-10-04T07:38:13.897Z,102504.19
2018-10-04T07:40:43.926Z,102506.94
2018-10-04T07:43:13.804Z,102514.44
2018-10-04T07:45:43.706Z,102505.86
2018-10-04T07:48:13.818Z,102513.89
2018-10-04T07:50:43.883Z,102512.32
2018-10-04T07:53:13.633Z,102514.73
2018-10-04T07:55:43.522Z,102515.56
2018-10-04T07:58:13.760Z,102525.73
2018-10-04T08:00:43.781Z,102529.49
2018-10-04T08:03:13.703Z,102526.59
2018-10-04T08:05:43.706Z,102527.42
2018-10-04T08:08:13.489Z,102534.67
2018-10-04T08:10:43.527Z,102534.41
2018-10-04T08:13:13.439Z,102537.12
2018-10-04T08:15:43.492Z,102541.13
2018-10-04T08:18:13.470Z,102535.00
2018-10-04T08:20:43.293Z,102536.90
2018-10-04T08:23:13.160Z,102537.20
2018-10-04T08:25:43.237Z,102539.54
2018-10-04T08:28:13.280Z,102535.27
2018-10-04T08:30:43.072Z,102540.88
2018-10-04T08:33:13.146Z,102543.03
2018-10-04T08:35:43.416Z,102546.48
2018-10-04T08:38:13.410Z,102543.28
2018-10-04T08:40:43.665Z,102539.58
2018-10-04T08:43:13.612Z,102545.48
2018-10-04T08:45:43.526Z,102547.08
2018-10-04T08:48:13.424Z,102544.97
2018-10-04T08:50:43.413Z,102546.30
2018-10-04T08:53:13.419Z,102548.72
2018-10-04T08:55:43.331Z,102543.62
2018-10-04T08:58:13.102Z,102541.25
2018-10-04T09:00:43.595Z,102540.44
2018-10-04T09:03:13.580Z,102540.98
2018-10-04T09:05:43.332Z,102537.23
2018-10-04T09:08:13.488Z,102541.29
2018-10-04T09:10:43.339Z,102537.05
2018-10-04T09:13:13.241Z,102538.91
2018-10-04T09:15:43.254Z,102542.66
2018-10-04T09:18:13.176Z,102537.86
2018-10-04T09:20:43.340Z,102534.64
2018-10-04T09:23:13.141Z,102534.38
2018-10-04T09:25:43.069Z,102536.30
2018-10-04T09:28:15.536Z,102540.06
2018-10-04T09:30:50.807Z,102536.05
2018-10-04T09:33:21.238Z,102536.92
2018-10-04T09:35:51.235Z,102538.78
2018-10-04T09:38:21.520Z,102535.33
2018-10-04T09:40:51.583Z,102528.66
2018-10-04T09:43:21.468Z,102522.52
2018-10-04T09:45:52.001Z,102524.41
2018-10-04T09:48:21.970Z,102529.80
2018-10-04T09:50:51.842Z,102522.31
2018-10-04T09:53:21.788Z,102528.77
2018-10-04T09:55:56.768Z,102527.48
2018-10-04T09:58:26.645Z,102525.07
2018-10-04T10:01:01.522Z,102523.49
2018-10-04T10:03:31.579Z,102520.81
2018-10-04T10:06:01.584Z,102521.91
2018-10-04T10:08:31.381Z,102516.89
2018-10-04T10:11:01.478Z,102517.95
2018-10-04T10:13:31.298Z,102516.66
2018-10-04T10:16:01.188Z,102520.44
2018-10-04T10:18:31.274Z,102519.11
2018-10-04T10:21:01.511Z,102515.40
2018-10-04T10:23:31.370Z,102513.24
2018-10-04T10:26:01.321Z,102513.02
2018-10-04T10:28:31.716Z,102519.96
2018-10-04T10:31:01.929Z,102509.53
2018-10-04T10:33:32.020Z,102508.98
2018-10-04T10:36:01.991Z,102505.25
2018-10-04T10:38:31.849Z,102506.61
2018-10-04T10:41:02.008Z,102507.16
2018-10-04T10:43:31.961Z,102502.31
2018-10-04T10:46:01.955Z,102500.70
2018-10-04T10:48:31.849Z,102482.17
2018-10-04T10:51:01.942Z,102475.48
2018-10-04T10:53:31.900Z,102475.50
2018-10-04T10:56:02.093Z,102472.47
2018-10-04T10:58:32.138Z,102473.25
2018-10-04T11:01:02.381Z,102472.64
2018-10-04T11:03:32.300Z,102471.25
2018-10-04T11:06:02.304Z,102474.67
2018-10-04T11:08:32.143Z,102472.48
2018-10-04T11:11:02.017Z,102467.67
2018-10-04T11:13:31.955Z,102467.67
2018-10-04T11:16:01.991Z,102462.58
2018-10-04T11:18:31.983Z,102465.48
2018-10-04T11:21:01.861Z,102465.73
2018-10-04T11:23:31.785Z,102468.92
2018-10-04T11:26:01.777Z,102475.36
2018-10-04T11:31:11.070Z,102462.23
2018-10-04T11:33:40.972Z,102464.39
2018-10-04T11:36:10.837Z,102461.20
2018-10-04T11:38:40.897Z,102468.17
2018-10-04T11:41:10.838Z,102467.89
2018-10-04T11:43:41.245Z,102465.48
2018-10-04T11:46:11.567Z,102463.02
2018-10-04T11:48:43.966Z,102465.98
2018-10-04T11:51:14.281Z,102460.86
2018-10-04T11:53:44.261Z,102458.98
2018-10-04T11:56:14.283Z,102457.36
2018-10-04T11:58:44.165Z,102454.42
2018-10-04T12:01:14.167Z,102446.89
2018-10-04T12:03:44.111Z,102441.79
2018-10-04T12:06:14.013Z,102441.51
2018-10-04T12:08:43.966Z,102435.31
2018-10-04T12:11:14.104Z,102435.20
2018-10-04T12:13:44.054Z,102434.63
2018-10-04T12:16:13.798Z,102432.11
2018-10-04T12:18:44.165Z,102430.27
2018-10-04T12:21:14.179Z,102426.24
2018-10-04T12:23:44.097Z,102422.13
2018-10-04T12:26:14.032Z,102408.38
2018-10-04T12:28:43.879Z,102412.55
2018-10-04T12:31:13.762Z,102413.56
2018-10-04T12:33:43.869Z,102412.11
2018-10-04T12:36:14.180Z,102404.74
2018-10-04T12:38:43.897Z,102401.63
2018-10-04T12:41:14.017Z,102405.50
2018-10-04T12:43:44.148Z,102394.87
2018-10-04T12:46:14.157Z,102399.08
2018-10-04T12:48:44.290Z,102403.23
2018-10-04T12:51:14.297Z,102400.84
2018-10-04T12:53:44.107Z,102399.25
2018-10-04T12:56:14.383Z,102389.29
2018-10-04T12:58:44.944Z,102392.34
2018-10-04T13:01:14.823Z,102390.14
2018-10-04T13:03:45.047Z,102378.56
2018-10-04T13:06:15.126Z,102368.91
2018-10-04T13:08:45.227Z,102362.50
2018-10-04T13:11:15.413Z,102359.20
2018-10-04T13:13:45.377Z,102358.36
2018-10-04T13:16:15.305Z,102353.70
2018-10-04T13:18:45.308Z,102345.59
2018-10-04T13:21:15.438Z,102351.19
2018-10-04T13:23:45.308Z,102340.41
2018-10-04T13:26:15.517Z,102339.75
2018-10-04T13:28:45.442Z,102337.44
2018-10-04T13:31:15.287Z,102342.80
2018-10-04T13:33:45.412Z,102341.99
2018-10-04T13:36:15.619Z,102342.50
2018-10-04T13:38:45.446Z,102335.13
2018-10-04T13:41:15.398Z,102332.23
2018-10-04T13:43:45.439Z,102330.65
2018-10-04T13:46:15.472Z,102326.55
2018-10-04T13:48:45.699Z,102320.41
2018-10-04T13:51:15.756Z,102316.73
2018-10-04T13:53:45.673Z,102322.18
2018-10-04T13:56:15.801Z,102318.32
2018-10-04T13:58:46.073Z,102314.89
2018-10-04T14:01:16.162Z,102308.47
2018-10-04T14:03:46.484Z,102304.69
2018-10-04T14:06:16.486Z,102301.70
2018-10-04T14:08:46.404Z,102295.97
2018-10-04T14:11:16.397Z,102297.05
2018-10-04T14:13:46.692Z,102298.27
2018-10-04T14:16:16.848Z,102295.59
2018-10-04T14:18:46.696Z,102298.52
2018-10-04T14:21:16.568Z,102302.08
2018-10-04T14:23:46.588Z,102301.92
2018-10-04T14:26:16.742Z,102309.16
2018-10-04T14:28:46.690Z,102299.65
2018-10-04T14:31:16.840Z,102300.56
2018-10-04T14:33:46.892Z,102297.95
2018-10-04T14:36:17.023Z,102291.80
2018-10-04T14:38:47.069Z,102287.98
2018-10-04T14:41:17.057Z,102286.73
2018-10-04T14:43:47.043Z,102282.47
2018-10-04T14:46:17.137Z,102287.80
2018-10-04T14:48:47.103Z,102285.93
2018-10-04T14:51:17.403Z,102281.72
2018-10-04T14:53:47.354Z,102283.95
2018-10-04T14:56:17.160Z,102279.93
2018-10-04T14:58:47.218Z,102271.85
2018-10-04T15:01:17.188Z,102266.09
2018-10-04T15:03:47.038Z,102269.38
2018-10-04T15:06:17.249Z,102265.16
2018-10-04T15:08:47.294Z,102268.20
2018-10-04T15:11:17.531Z,102266.56
2018-10-04T15:13:47.926Z,102261.41
2018-10-04T15:16:18.265Z,102260.95
2018-10-04T15:18:48.402Z,102266.94
2018-10-04T15:21:18.506Z,102259.63
2018-10-04T15:23:48.654Z,102259.98
2018-10-04T15:26:18.923Z,102265.41
2018-10-04T15:28:49.013Z,102258.77
2018-10-04T15:31:19.186Z,102256.64
2018-10-04T15:33:49.289Z,102253.37
2018-10-04T15:36:19.214Z,102252.91
2018-10-04T15:38:49.094Z,102247.30
2018-10-04T15:41:18.884Z,102252.74
2018-10-04T15:43:48.775Z,102254.39
2018-10-04T15:46:18.732Z,102251.98
2018-10-04T15:48:48.768Z,102247.19
2018-10-04T15:51:18.746Z,102252.92
2018-10-04T15:53:48.587Z,102246.13
2018-10-04T15:56:18.704Z,102251.59
2018-10-04T15:58:48.744Z,102247.09
2018-10-04T16:01:18.821Z,102244.16
2018-10-04T16:03:48.846Z,102241.46
2018-10-04T16:06:18.900Z,102235.03
2018-10-04T16:08:49.031Z,102239.36
2018-10-04T16:11:19.335Z,102243.45
2018-10-04T16:13:49.534Z,102243.20
2018-10-04T16:16:19.689Z,102238.88
2018-10-04T16:18:49.656Z,102237.61
2018-10-04T16:21:19.608Z,102231.50
2018-10-04T16:23:49.583Z,102232.33
2018-10-04T16:26:19.920Z,102219.75
2018-10-04T16:28:49.972Z,102223.52
2018-10-04T16:31:19.954Z,102227.06
2018-10-04T16:33:49.915Z,102222.23
2018-10-04T16:36:19.845Z,102225.20
2018-10-04T16:38:49.717Z,102229.04
2018-10-04T16:41:20.089Z,102232.02
2018-10-04T16:43:50.024Z,102230.19
2018-10-04T16:46:20.003Z,102232.06
2018-10-04T16:48:50.259Z,102233.20
2018-10-04T16:51:20.225Z,102234.02
2018-10-04T16:53:50.340Z,102233.28
2018-10-04T16:56:20.380Z,102232.52
2018-10-04T16:58:50.353Z,102233.37
2018-10-04T17:01:20.400Z,102231.50
2018-10-04T17:03:50.727Z,102226.73
2018-10-04T17:06:20.702Z,102236.66
2018-10-04T17:08:50.467Z,102232.14
2018-10-04T17:11:20.822Z,102237.83
2018-10-04T17:13:50.807Z,102236.52
2018-10-04T17:16:20.991Z,102240.57
2018-10-04T17:18:50.850Z,102234.14
2018-10-04T17:21:20.977Z,102240.63
2018-10-04T17:23:51.276Z,102239.85
2018-10-04T17:26:21.436Z,102240.66
2018-10-04T17:28:51.755Z,102236.09
2018-10-04T17:31:21.708Z,102235.06
2018-10-04T17:33:52.089Z,102243.14
2018-10-04T17:36:22.175Z,102240.72
2018-10-04T17:38:52.186Z,102242.91
2018-10-04T17:41:22.134Z,102237.03
2018-10-04T17:43:52.233Z,102239.98
2018-10-04T17:46:22.147Z,102238.12
2018-10-04T17:48:52.456Z,102239.48
2018-10-04T17:51:22.636Z,102231.45
2018-10-04T17:53:52.885Z,102235.78
2018-10-04T17:56:22.853Z,102229.34
2018-10-04T17:58:53.013Z,102233.65
2018-10-04T18:01:22.929Z,102225.33
2018-10-04T18:03:53.338Z,102225.91
2018-10-04T18:06:23.721Z,102227.53
2018-10-04T18:08:53.914Z,102227.52
2018-10-04T18:11:23.904Z,102230.76
2018-10-04T18:13:53.944Z,102228.36
2018-10-04T18:16:24.134Z,102229.44
2018-10-04T18:18:54.165Z,102230.22
2018-10-04T18:21:24.189Z,102225.67
2018-10-04T18:23:54.125Z,102226.99
2018-10-04T18:26:24.080Z,102231.83
2018-10-04T18:28:54.258Z,102223.25
2018-10-04T18:31:24.416Z,102225.12
2018-10-04T18:33:54.348Z,102225.92
2018-10-04T18:36:24.485Z,102225.66
2018-10-04T18:38:54.516Z,102217.63
2018-10-04T18:41:24.435Z,102214.13
2018-10-04T18:43:54.416Z,102220.02
2018-10-04T18:46:24.374Z,102215.19
2018-10-04T18:48:54.395Z,102219.77
2018-10-04T18:51:24.584Z,102217.34
2018-10-04T18:53:54.781Z,102209.58
2018-10-04T18:56:25.159Z,102218.41
2018-10-04T18:58:55.606Z,102220.53
2018-10-04T19:01:26.116Z,102210.64
2018-10-04T19:03:56.554Z,102206.37
2018-10-04T19:06:26.617Z,102206.08
2018-10-04T19:08:56.683Z,102206.61
2018-10-04T19:11:26.616Z,102205.02
2018-10-04T19:13:56.704Z,102209.30
2018-10-04T19:16:27.253Z,102204.73
2018-10-04T19:18:57.259Z,102207.41
2018-10-04T19:21:27.116Z,102208.20
2018-10-04T19:23:57.801Z,102210.63
2018-10-04T19:26:28.074Z,102205.25
2018-10-04T19:28:58.209Z,102205.52
2018-10-04T19:31:28.337Z,102203.41
2018-10-04T19:33:58.420Z,102203.91
2018-10-04T19:36:28.598Z,102201.79
2018-10-04T19:38:58.544Z,102201.25
2018-10-04T19:41:28.784Z,102194.53
2018-10-04T19:43:58.816Z,102194.26
2018-10-04T19:46:28.970Z,102197.47
2018-10-04T19:48:59.101Z,102198.81
2018-10-04T19:51:29.174Z,102201.47
2018-10-04T19:53:59.578Z,102203.09
2018-10-04T19:56:29.629Z,102206.03
2018-10-04T19:58:59.958Z,102202.27
2018-10-04T20:01:30.072Z,102201.19
2018-10-04T20:04:00.321Z,102199.31
2018-10-04T20:06:30.354Z,102204.64
2018-10-04T20:09:00.235Z,102202.23
2018-10-04T20:11:30.606Z,102208.13
2018-10-04T20:14:00.581Z,102201.95
2018-10-04T20:16:30.550Z,102204.08
2018-10-04T20:19:00.443Z,102203.54
2018-10-04T20:21:30.365Z,102198.72
2018-10-04T20:24:00.236Z,102193.11
2018-10-04T20:26:30.617Z,102197.62
2018-10-04T20:29:00.600Z,102197.08
2018-10-04T20:31:30.675Z,102192.80
2018-10-04T20:34:00.861Z,102189.87
2018-10-04T20:36:30.925Z,102184.22
2018-10-04T20:39:00.783Z,102181.80
2018-10-04T20:41:30.652Z,102184.20
2018-10-04T20:44:00.780Z,102182.59
2018-10-04T20:46:30.618Z,102183.12
2018-10-04T20:49:00.546Z,102187.39
2018-10-04T20:51:30.753Z,102181.50
2018-10-04T20:54:01.331Z,102183.08
2018-10-04T20:56:31.444Z,102171.05
2018-10-04T20:59:01.409Z,102169.43
2018-10-04T21:01:31.371Z,102169.16
2018-10-04T21:04:01.375Z,102168.87
2018-10-04T21:06:31.758Z,102165.95
2018-10-04T21:09:01.832Z,102163.25
2018-10-04T21:11:32.000Z,102160.84
2018-10-04T21:14:01.939Z,102156.81
2018-10-04T21:16:32.259Z,102156.53
2018-10-04T21:19:02.328Z,102149.03
2018-10-04T21:21:32.409Z,102150.89
2018-10-04T21:24:02.445Z,102145.84
2018-10-04T21:26:32.328Z,102150.11
2018-10-04T21:29:02.508Z,102147.97
2018-10-04T21:31:32.620Z,102142.63
2018-10-04T21:34:02.665Z,102139.66
2018-10-04T21:36:32.634Z,102149.53
2018-10-04T21:39:02.617Z,102150.61
2018-10-04T21:41:32.460Z,102148.17
2018-10-04T21:44:02.244Z,102145.77
2018-10-04T21:46:32.281Z,102155.12
2018-10-04T21:49:02.255Z,102144.67
2018-10-04T21:51:32.192Z,102148.38
2018-10-04T21:54:02.026Z,102149.46
2018-10-04T21:56:31.841Z,102151.09
2018-10-04T21:59:01.726Z,102153.20
2018-10-04T22:01:31.545Z,102154.77
2018-10-04T22:04:01.482Z,102151.00
2018-10-04T22:06:31.419Z,102157.16
2018-10-04T22:09:01.311Z,102156.59
2018-10-04T22:11:31.457Z,102151.23
2018-10-04T22:14:01.302Z,102149.63
2018-10-04T22:16:31.138Z,102147.77
2018-10-04T22:19:01.089Z,102148.30
2018-10-04T22:21:30.938Z,102149.11
2018-10-04T22:24:00.668Z,102145.63
2018-10-04T22:26:30.784Z,102144.30
2018-10-04T22:29:00.724Z,102146.94
2018-10-04T22:31:30.496Z,102142.41
2018-10-04T22:34:00.422Z,102147.19
2018-10-04T22:36:30.277Z,102143.70
2018-10-04T22:39:00.396Z,102146.38
2018-10-04T22:41:30.265Z,102139.44
2018-10-04T22:43:59.997Z,102137.81
2018-10-04T22:46:30.004Z,102132.22
2018-10-04T22:48:59.857Z,102127.66
2018-10-04T22:51:29.769Z,102127.11
2018-10-04T22:53:59.931Z,102125.77
2018-10-04T22:56:30.364Z,102124.95
2018-10-04T22:59:00.252Z,102122.77
2018-10-04T23:01:30.318Z,102117.85
2018-10-04T23:04:00.239Z,102114.86
2018-10-04T23:06:30.357Z,102118.08
2018-10-04T23:09:00.283Z,102118.37
2018-10-04T23:11:30.185Z,102115.97
2018-10-04T23:14:00.062Z,102108.74
2018-10-04T23:16:30.377Z,102107.41
2018-10-04T23:19:00.269Z,102104.73
2018-10-04T23:21:30.301Z,102098.84
2018-10-04T23:24:00.215Z,102094.84
2018-10-04T23:26:30.209Z,102096.18
2018-10-04T23:29:00.363Z,102092.47
2018-10-04T23:31:30.350Z,102091.66
2018-10-04T23:34:00.358Z,102095.40
2018-10-04T23:36:30.508Z,102091.95
2018-10-04T23:39:00.854Z,102094.09
2018-10-04T23:41:30.884Z,102099.73
2018-10-04T23:44:00.979Z,102101.66
2018-10-04T23:46:31.042Z,102102.47
2018-10-04T23:49:01.172Z,102096.58
2018-10-04T23:51:31.137Z,102097.69
2018-10-04T23:54:01.155Z,102091.24
2018-10-04T23:56:31.351Z,102092.05
2018-10-04T23:59:01.409Z,102085.94
